Have a Safe July 4th! 

Flight Track Log - Related Links

Times and Time Zones

All times are in EDT time to prevent confusion due to time zone crossing. See the LXJ342 flight status page for this flight to view local times or setup timezone preferences in your user account.

Time Position Orientation Groundspeed Altitude Reporting Facility
EDT Latitude Longitude Course Direction KTS MPH feet Rate Location/Type
Sun 10:48:13 AM 42.2000 -87.9333 350° North 250 288 5,400  Level Chicago TRACON
Sun 10:49:24 AM 42.1958 -87.8767 96° East 242 278 9,900 3,318 Climbing Chicago Center
Sun 10:50:25 AM 42.1039 -87.8778 181° South 284 327 12,700 3,024 Climbing Chicago Center
Sun 10:51:27 AM 42.0131 -87.8592 171° South 334 384 16,100 2,952 Climbing Chicago Center
Sun 10:52:29 AM 41.9208 -87.8289 166° South 342 394 18,800 2,468 Climbing Chicago Center
Sun 10:53:31 AM 41.8228 -87.8033 169° South 357 411 21,200 2,244 Climbing Chicago Center
Sun 10:54:32 AM 41.7211 -87.7775 169° South 368 423 23,400 2,049 Climbing Chicago Center
Sun 10:55:34 AM 41.6156 -87.7528 170° South 380 437 25,400 1,742 Climbing Chicago Center
Sun 10:56:36 AM 41.5075 -87.7269 170° South 389 448 27,000 780 Climbing Chicago Center
Sun 10:57:37 AM 41.3947 -87.6986 169° South 404 465 27,000  Level Chicago Center
Sun 10:58:39 AM 41.2631 -87.6664 170° South 399 459 27,000  Level Chicago Center
Sun 10:59:41 AM 41.1556 -87.6411 170° South 393 452 27,000  Level Chicago Center
Sun 11:00:42 AM 41.0433 -87.6108 168° South 403 464 27,000  Level Chicago Center
Sun 11:01:44 AM 40.9336 -87.5431 155° Southeast 431 496 27,000  Level Chicago Center
Sun 11:02:46 AM 40.8253 -87.4794 156° South 429 494 27,000  Level Chicago Center
Sun 11:03:47 AM 40.7178 -87.4172 156° South 425 489 27,000  Level Chicago Center
Sun 11:04:49 AM 40.6097 -87.3553 156° South 424 488 27,000  Level Chicago Center
Sun 11:05:51 AM 40.4814 -87.2811 156° South 422 486 27,000  Level Chicago Center
Sun 11:06:52 AM 40.3700 -87.2211 158° South 421 484 27,000  Level Chicago Center
Sun 11:07:55 AM 40.2625 -87.1606 157° South 421 484 27,000  Level Chicago Center
Sun 11:08:56 AM 40.1569 -87.0994 156° South 416 479 27,000  Level Chicago Center
Sun 11:09:44 AM 40.0692 -87.0506 157° South 423 487 27,000  Level Indianapolis Center
Sun 11:10:46 AM 39.9644 -86.9908 156° South 415 478 27,000  Level Indianapolis Center
Sun 11:11:48 AM 39.8608 -86.9331 157° South 410 472 27,000 -145 Level Indianapolis Center
Sun 11:12:50 AM 39.7364 -86.8642 157° South 409 471 26,700 -677 Descending Indianapolis Center
Sun 11:13:52 AM 39.6322 -86.8050 156° South 413 475 25,600 -1,073 Descending Indianapolis Center
Sun 11:14:53 AM 39.5328 -86.7508 157° South 398 458 24,500 -1,073 Descending Indianapolis Center
Sun 11:15:55 AM 39.4350 -86.6969 157° South 386 444 23,400 -726 Descending Indianapolis Center
Sun 11:16:57 AM 39.3400 -86.6425 156° South 381 438 23,000 -629 Descending Indianapolis Center
Sun 11:17:59 AM 39.2281 -86.5819 157° South 369 425 22,100 -1,452 Descending Indianapolis Center
Sun 11:19:01 AM 39.1322 -86.5294 157° South 375 432 20,000 -1,935 Descending Indianapolis Center
Sun 11:20:03 AM 39.0414 -86.4803 157° South 360 414 18,100 -1,839 Descending Indianapolis Center
Sun 11:21:05 AM 38.9536 -86.4319 157° South 349 402 16,200 -1,902 Descending Indianapolis Center
Sun 11:22:06 AM 38.8578 -86.3794 157° South 347 399 14,200 -1,902 Descending Indianapolis Center
Sun 11:23:08 AM 38.7739 -86.3336 157° South 333 383 12,300 -1,548 Descending Indianapolis Center
Sun 11:24:10 AM 38.6956 -86.2872 155° Southeast 314 361 11,000 -1,258 Descending Indianapolis Center
Sun 11:25:12 AM 38.6397 -86.2292 141° Southeast 267 307 9,700 -1,403 Descending Indianapolis Center
Sun 11:26:14 AM 38.5881 -86.1658 136° Southeast 258 297 8,100 -1,403 Descending Indianapolis Center
Sun 11:27:16 AM 38.5472 -86.0892 124° Southeast 259 298 6,800 -1,258 Descending Indianapolis Center
Sun 11:28:18 AM 38.5033 -86.0156 127° Southeast 260 299 5,500 -1,258 Descending Indianapolis Center
Sun 11:29:20 AM 38.4519 -85.9331 128° Southeast 250 288 4,200 -1,161 Descending Indianapolis Center
Sun 11:30:22 AM 38.4056 -85.8853 141° Southeast 224 258 3,100 -585 Descending Indianapolis Center
Sun 11:31:23 AM 38.3594 -85.8347 139° Southeast 217 250 3,000 -49 Descending Indianapolis Center
Sun 11:32:25 AM 38.3119 -85.7919 145° Southeast 218 251 3,000 -387 Level Indianapolis Center
Sun 11:33:27 AM 38.2661 -85.7750 164° South 191 220 2,200 -774 Descending Indianapolis Center
Sun 11:36:00 AM 38.1741 -85.7365 142° Southeast  Level Estimated

Login

Don't have an account? Register now (free) for customized features, flight alerts, and more!